createdAt,value
2022-10-17T14:22:32.785Z,10.05
2022-10-17T14:25:02.841Z,7.95
2022-10-17T14:27:35.263Z,9.65
2022-10-17T14:30:08.123Z,5.05
2022-10-17T14:32:39.999Z,6.88
2022-10-17T14:35:37.184Z,4.80
2022-10-17T14:38:02.778Z,7.57
2022-10-17T14:40:32.714Z,7.80
2022-10-17T14:43:05.118Z,6.03
2022-10-17T14:45:35.513Z,9.00
2022-10-17T14:48:06.230Z,12.23
2022-10-17T14:50:36.484Z,14.82
2022-10-17T14:53:08.282Z,10.05
2022-10-17T14:55:38.858Z,10.82
2022-10-17T14:58:18.832Z,13.73
2022-10-17T15:00:47.417Z,11.98
2022-10-17T15:03:16.200Z,10.30
2022-10-17T15:05:45.014Z,10.55
2022-10-17T15:08:16.658Z,14.10
2022-10-17T15:10:46.392Z,25.52
2022-10-17T15:13:27.813Z,33.78
2022-10-17T15:15:57.752Z,28.05
2022-10-17T15:18:26.749Z,20.58
2022-10-17T15:21:04.848Z,21.98
2022-10-17T15:23:36.752Z,19.17
2022-10-17T15:26:07.750Z,10.25
2022-10-17T15:28:36.527Z,21.52
2022-10-17T15:31:05.259Z,12.90
2022-10-17T15:33:33.918Z,7.45
2022-10-17T15:36:02.727Z,8.43
2022-10-17T15:38:31.497Z,10.82
2022-10-17T15:41:02.479Z,7.10
2022-10-17T15:43:31.158Z,8.18
2022-10-17T15:46:01.938Z,10.00
2022-10-17T15:48:33.139Z,9.82
2022-10-17T15:51:01.882Z,10.95
2022-10-17T15:53:30.521Z,6.10
2022-10-17T15:56:02.510Z,6.40
2022-10-17T15:58:36.766Z,14.50
2022-10-17T16:01:07.317Z,8.20
2022-10-17T16:03:36.278Z,8.75
2022-10-17T16:06:04.976Z,9.05
2022-10-17T16:08:33.797Z,6.95
2022-10-17T16:11:03.921Z,11.48
2022-10-17T16:13:33.477Z,16.13
2022-10-17T16:16:02.197Z,12.63
2022-10-17T16:18:30.917Z,11.85
2022-10-17T16:21:00.437Z,9.23
2022-10-17T16:23:30.079Z,12.57
2022-10-17T16:25:58.801Z,16.40
